Anvik Airport Anvik US
ICAO: PANV
IATA:
Category: Medium
Scheduled Services:

Elevation: 291 ft
TransAlt. 18000 ft.

Airport Communications:
AWOS 3:133.55
ANCHORAGE CNTR:135.7
KENAI RDO:122.4
CTAF/UNICOM:122.7

PANV Zoom In..

If you have problems with the map follow the link
https://www.worldairports.se/pages/airport.php?
ICAO=PANV

Runways:

(A) RW 17 length 4000 ft width 75 ft
---- / hdg 172

(B) RW 35 length 4000 ft width 75 ft
---- / hdg 352

Location; PANV
Day. 18 / Time. 15.56 Zulu
* Altimeter: 29.62
* Temperature: 06° c. 42.8°f.
* Wind from: 100° Speed 07 kn.
Dewpoint: 05° c.
Visibility: 10 Statute Miles.
Clouds: Overcast 4400 ft.
Conditions: Light Rain.

PANV 181556Z AUTO 10007KT 10SM -RA OVC044 06/05 A2962 RMK AO2 RAB43 SLP051 P0000 T00560050


Wind From 100°
Speed 07 kn.

 
 
jpsmedia.com for Web Design worldairports.se 2018   terms of use